• Join FlightAware (Why Join?)
  • Login
  • US Flag 
Gobble Gobble! 
03:55AM EST


 

Airport Tracker/Info


-or-


 

Live Flight TrackerFlight Track Log ✈ AAL1068 ✈ 21-Apr-2013 ✈ KORD - KMIA

Flight Track Log - Related Links

Times and Time Zones

All times are in EDT time to prevent confusion due to time zone crossing. See the AAL1068 flight status page for this flight to view local times or setup timezone preferences in your user account.

Time Position Orientation Groundspeed Altitude Reporting Facility
EDT Latitude Longitude Course Direction KTS MPH feet Rate Location/Type
07:15PM 41.9440 -87.9080 220° Southwest 153 176 1,300  Level FlightAware
07:16PM 41.9370 -87.9090 186° South 159 183 1,600 1,800 Climbing FlightAware
07:16PM 41.9090 -87.9080 178° South 206 237 2,500 1,680 Climbing FlightAware
07:16PM 41.8950 -87.9080 180° South 223 257 2,900 2,400 Climbing FlightAware
07:17PM 41.8660 -87.9060 177° South 241 277 4,100 2,580 Climbing FlightAware
07:17PM 41.8320 -87.9020 175° South 265 305 5,300 2,700 Climbing FlightAware
07:18PM 41.8020 -87.8920 166° South 275 316 6,600 3,240 Climbing FlightAware
07:18PM 41.7640 -87.8750 162° South 282 325 8,300 3,300 Climbing FlightAware
07:19PM 41.7270 -87.8590 162° South 284 327 9,900 3,240 Climbing FlightAware
07:19PM 41.6760 -87.8370 162° South 286 329 12,100 2,820 Climbing FlightAware
07:20PM 41.6260 -87.8140 161° South 299 344 13,700 2,040 Climbing FlightAware
07:21PM 41.5600 -87.7860 162° South 337 388 15,000 1,860 Climbing FlightAware
07:21PM 41.4990 -87.7590 162° South 358 412 16,400 2,100 Climbing FlightAware
07:22PM 41.4510 -87.7380 162° South 369 425 17,500 2,040 Climbing FlightAware
07:23PM 41.3870 -87.7210 169° South 376 433 18,800 2,100 Climbing FlightAware
07:23PM 41.3050 -87.7240 182° South 385 443 20,500 2,160 Climbing FlightAware
07:24PM 41.2350 -87.7260 181° South 391 450 21,900 1,860 Climbing FlightAware
07:25PM 41.1510 -87.7190 176° South 407 468 23,200 1,680 Climbing FlightAware
07:25PM 41.0730 -87.7080 174° South 417 480 24,300 1,560 Climbing FlightAware
07:26PM 41.0010 -87.6990 175° South 424 488 25,300 1,500 Climbing FlightAware
07:27PM 40.9090 -87.6860 174° South 432 497 26,500 1,500 Climbing FlightAware
07:27PM 40.8270 -87.6760 175° South 437 503 27,500 1,380 Climbing FlightAware
07:28PM 40.7550 -87.6660 174° South 441 507 28,400 1,320 Climbing FlightAware
07:29PM 40.6580 -87.6530 174° South 446 513 29,400 1,620 Climbing FlightAware
07:30PM 40.5770 -87.6420 174° South 441 507 30,700 1,740 Climbing FlightAware
07:30PM 40.4850 -87.6300 174° South 436 502 31,900 1,020 Climbing FlightAware
07:31PM 40.4090 -87.6190 174° South 435 501 32,200 1,320 Climbing FlightAware
07:32PM 40.3240 -87.6040 172° South 437 503 33,700 1,500 Climbing FlightAware
07:33PM 40.2230 -87.5470 157° South 441 507 34,600 780 Climbing FlightAware
07:33PM 40.1410 -87.4900 152° Southeast 441 507 35,000 240 Climbing FlightAware
07:34PM 40.0760 -87.4430 151° Southeast 441 507 35,000  Level FlightAware
07:35PM 39.9860 -87.3830 153° Southeast 440 506 35,000  Level FlightAware
07:36PM 39.8910 -87.3180 152° Southeast 437 503 35,000  Level FlightAware
07:36PM 39.8160 -87.2660 152° Southeast 437 503 35,000  Level FlightAware
07:37PM 39.7410 -87.2150 152° Southeast 434 499 35,000  Level FlightAware
07:38PM 39.6650 -87.1630 152° Southeast 434 499 35,000  Level FlightAware
07:38PM 39.5860 -87.1090 152° Southeast 434 499 35,000  Level FlightAware
07:39PM 39.5140 -87.0610 153° Southeast 436 502 35,000  Level FlightAware
07:40PM 39.4410 -87.0110 152° Southeast 437 503 35,000  Level FlightAware
07:41PM 39.3620 -86.9570 152° Southeast 436 502 35,000  Level FlightAware
07:41PM 39.2880 -86.9080 153° Southeast 437 503 35,000  Level FlightAware
07:42PM 39.2080 -86.8540 152° Southeast 436 502 35,000  Level FlightAware
07:43PM 39.1370 -86.8070 153° Southeast 436 502 35,000  Level FlightAware
07:43PM 39.0580 -86.7530 152° Southeast 435 501 35,000  Level FlightAware
07:44PM 38.9870 -86.7060 153° Southeast 434 499 35,000  Level FlightAware
07:45PM 38.9150 -86.6590 153° Southeast 434 499 35,000  Level FlightAware
07:45PM 38.8330 -86.6040 152° Southeast 433 498 35,000  Level FlightAware
07:46PM 38.7620 -86.5570 153° Southeast 433 498 35,000  Level FlightAware
07:47PM 38.7000 -86.5160 153° Southeast 433 498 35,000  Level FlightAware
07:48PM 38.6150 -86.4600 153° Southeast 435 501 35,000  Level FlightAware
07:48PM 38.5460 -86.4140 152° Southeast 436 502 35,000  Level FlightAware
07:49PM 38.4620 -86.3590 153° Southeast 437 503 35,000  Level FlightAware
07:50PM 38.3890 -86.3120 153° Southeast 438 504 35,000  Level FlightAware
07:50PM 38.3080 -86.2590 153° Southeast 437 503 35,000  Level FlightAware
07:51PM 38.2360 -86.2120 153° Southeast 438 504 35,000  Level FlightAware
07:52PM 38.1640 -86.1650 153° Southeast 440 506 35,000  Level FlightAware
07:52PM 38.0800 -86.1110 153° Southeast 441 507 35,000  Level FlightAware
07:53PM 38.0070 -86.0630 153° Southeast 441 507 35,000  Level FlightAware
07:54PM 37.9260 -86.0110 153° Southeast 442 509 35,000  Level FlightAware
07:55PM 37.8500 -85.9620 153° Southeast 443 510 35,000  Level FlightAware
07:55PM 37.7790 -85.9170 153° Southeast 444 511 35,000  Level FlightAware
07:56PM 37.6980 -85.8650 153° Southeast 444 511 35,000  Level FlightAware
07:57PM 37.6250 -85.8180 153° Southeast 443 510 35,000  Level FlightAware
07:57PM 37.5400 -85.7640 153° Southeast 441 507 35,000  Level FlightAware
07:58PM 37.4667 -85.7175 153° Southeast 441 507 35,000  Level FlightAware ADS-B
07:59PM 37.4116 -85.6825 153° Southeast 441 507 35,000  Level FlightAware ADS-B
07:59PM 37.3551 -85.6465 153° Southeast 441 507 35,000  Level FlightAware ADS-B
08:00PM 37.2977 -85.6103 153° Southeast 440 506 35,000  Level FlightAware ADS-B
08:00PM 37.2410 -85.5750 154° Southeast 440 506 35,000  Level FlightAware
08:00PM 37.2259 -85.5650 152° Southeast 440 506 35,000  Level FlightAware ADS-B
08:01PM 37.1580 -85.5220 153° Southeast 440 506 35,000  Level FlightAware
08:01PM 37.1288 -85.5038 154° Southeast 441 507 35,000  Level FlightAware ADS-B
08:02PM 37.0741 -85.4692 153° Southeast 441 507 35,000  Level FlightAware ADS-B
08:02PM 37.0178 -85.4340 153° Southeast 441 507 35,000  Level FlightAware ADS-B
08:03PM 36.9594 -85.3974 153° Southeast 440 506 35,000  Level FlightAware ADS-B
08:03PM 36.8779 -85.3464 153° Southeast 438 504 35,000  Level FlightAware ADS-B
08:04PM 36.8233 -85.3123 153° Southeast 437 503 35,000  Level FlightAware ADS-B
08:04PM 36.7676 -85.2776 153° Southeast 437 503 35,000  Level FlightAware ADS-B
08:05PM 36.7089 -85.2413 154° Southeast 438 504 35,000  Level FlightAware ADS-B
08:06PM 36.6510 -85.2060 154° Southeast 440 506 35,000  Level FlightAware
08:06PM 36.6001 -85.1804 158° South 440 506 35,000  Level FlightAware ADS-B
08:07PM 36.5271 -85.1596 167° South 431 496 35,000  Level FlightAware ADS-B
08:07PM 36.4668 -85.1439 168° South 431 496 35,000  Level FlightAware ADS-B
08:08PM 36.4070 -85.1290 169° South 432 497 35,000  Level FlightAware
08:08PM 36.3946 -85.1253 166° South 432 497 35,000  Level FlightAware ADS-B
08:08PM 36.3239 -85.1071 168° South 432 497 35,000  Level FlightAware ADS-B
08:09PM 36.2635 -85.0915 168° South 433 498 35,000  Level FlightAware ADS-B
08:09PM 36.2042 -85.0762 168° South 434 499 35,000  Level FlightAware ADS-B
08:10PM 36.1438 -85.0609 168° South 434 499 35,000  Level FlightAware ADS-B
08:10PM 36.0832 -85.0456 168° South 434 499 35,000  Level FlightAware ADS-B
08:11PM 36.0221 -85.0299 168° South 433 498 35,000  Level FlightAware ADS-B
08:11PM 35.9625 -85.0144 168° South 433 498 35,000  Level FlightAware ADS-B
08:12PM 35.9016 -84.9989 168° South 433 498 35,000  Level FlightAware ADS-B
08:12PM 35.8427 -84.9839 168° South 432 497 35,000  Level FlightAware ADS-B
08:13PM 35.7818 -84.9684 168° South 432 497 35,000  Level FlightAware ADS-B
08:13PM 35.7230 -84.9535 168° South 431 496 35,000  Level FlightAware ADS-B
08:14PM 35.6615 -84.9378 168° South 430 495 35,000  Level FlightAware ADS-B
08:15PM 35.5898 -84.9195 168° South 429 494 35,000  Level FlightAware ADS-B
08:15PM 35.5288 -84.9041 168° South 427 491 35,000  Level FlightAware ADS-B
08:16PM 35.4697 -84.8890 168° South 425 489 35,000  Level FlightAware ADS-B
08:16PM 35.4105 -84.8740 168° South 424 488 35,000  Level FlightAware ADS-B
08:17PM 35.3529 -84.8599 169° South 423 487 35,000  Level FlightAware ADS-B
08:17PM 35.2933 -84.8450 168° South 426 490 35,000  Level FlightAware ADS-B
08:18PM 35.2339 -84.8300 168° South 427 491 35,000  Level FlightAware ADS-B
08:18PM 35.1748 -84.8152 168° South 428 493 35,000  Level FlightAware ADS-B
08:19PM 35.1125 -84.7995 168° South 427 491 35,000  Level FlightAware ADS-B
08:19PM 35.0508 -84.7841 168° South 427 491 35,000  Level FlightAware ADS-B
08:20PM 34.9510 -84.7590 168° South 425 489 35,000  Level FlightAware
08:21PM 34.8710 -84.7390 168° South 424 488 35,000  Level FlightAware
08:21PM 34.7970 -84.7210 169° South 423 487 35,000  Level FlightAware
08:22PM 34.7010 -84.6970 168° South 414 476 35,000  Level FlightAware
08:23PM 34.6704 -84.6896 169° South 422 486 35,000  Level FlightAware ADS-B
08:23PM 34.6064 -84.6737 168° South 421 484 35,000  Level FlightAware ADS-B
08:24PM 34.5390 -84.6570 168° South 411 473 35,000  Level FlightAware
08:24PM 34.5117 -84.6503 169° South 419 482 35,000  Level FlightAware ADS-B
08:24PM 34.4534 -84.6359 168° South 419 482 35,000  Level FlightAware ADS-B
08:25PM 34.3797 -84.6179 169° South 418 481 35,000  Level FlightAware ADS-B
08:26PM 34.3030 -84.5990 168° South 410 472 35,000  Level FlightAware
08:27PM 34.2180 -84.5780 168° South 411 473 35,000  Level FlightAware
08:27PM 34.1430 -84.5600 169° South 411 473 35,000  Level FlightAware
08:28PM 34.0670 -84.5410 168° South 411 473 35,000  Level FlightAware
08:29PM 33.9825 -84.5210 169° South 419 482 35,000  Level FlightAware ADS-B
08:29PM 33.9064 -84.5025 169° South 417 480 35,000  Level FlightAware ADS-B
08:30PM 33.8481 -84.4884 169° South 417 480 35,000  Level FlightAware ADS-B
08:30PM 33.7884 -84.4737 168° South 417 480 35,000  Level FlightAware ADS-B
08:31PM 33.7278 -84.4588 168° South 416 479 35,000  Level FlightAware ADS-B
08:31PM 33.6698 -84.4446 168° South 417 480 35,000  Level FlightAware ADS-B
08:32PM 33.6040 -84.4282 168° South 418 481 35,000  Level FlightAware ADS-B
08:33PM 33.5176 -84.4043 167° South 424 488 35,000  Level FlightAware ADS-B
08:33PM 33.4606 -84.3831 163° South 423 487 35,000  Level FlightAware ADS-B
08:34PM 33.3510 -84.3380 161° South 426 490 35,000  Level FlightAware
08:37PM 33.0120 -84.1930 160° South 414 476 35,000  Level FlightAware
08:38PM 32.9190 -84.1530 160° South 413 475 35,000  Level FlightAware
08:39PM 32.8270 -84.1160 161° South 414 476 35,000  Level FlightAware
08:40PM 32.7610 -84.0890 161° South 414 476 35,000  Level FlightAware
08:41PM 32.6430 -84.0400 161° South 423 487 35,000  Level FlightAware
08:41PM 32.5570 -84.0030 160° South 423 487 35,000  Level FlightAware
08:42PM 32.4570 -83.9620 161° South 423 487 35,000  Level FlightAware
08:44PM 32.2960 -83.8920 160° South 423 487 35,000  Level FlightAware
08:45PM 32.2330 -83.8650 160° South 423 487 35,000  Level FlightAware
08:45PM 32.1710 -83.8380 160° South 423 487 35,000  Level FlightAware
08:46PM 32.1080 -83.8120 161° South 423 487 35,000  Level FlightAware
08:47PM 32.0460 -83.7850 160° South 423 487 35,000  Level FlightAware
08:48PM 31.9670 -83.7510 160° South 423 487 35,000  Level FlightAware
08:48PM 31.9050 -83.7240 160° South 423 487 35,000  Level FlightAware
08:49PM 31.8420 -83.6980 161° South 423 487 35,000  Level FlightAware
08:50PM 31.7800 -83.6710 160° South 423 487 35,000  Level FlightAware
08:50PM 31.7170 -83.6440 160° South 423 487 35,000  Level FlightAware
08:51PM 31.6390 -83.6110 160° South 423 487 35,000  Level FlightAware
08:52PM 31.5770 -83.5840 160° South 423 487 35,000  Level FlightAware
08:52PM 31.3819 -83.5617 160° South 418 481 35,000  Level Jacksonville Center
08:53PM 31.2714 -83.5367 169° South 412 474 35,000  Level Jacksonville Center
08:59PM 30.5880 -83.3670 169° South 408 470 35,000  Level FlightAware
09:00PM 30.5130 -83.3490 168° South 408 470 35,000  Level FlightAware
09:01PM 30.4510 -83.3340 168° South 408 470 35,000  Level FlightAware
09:01PM 30.3880 -83.3180 168° South 408 470 35,000  Level FlightAware
09:02PM 30.3250 -83.3030 168° South 408 470 35,000  Level FlightAware
09:03PM 30.2470 -83.2830 168° South 408 470 35,000  Level FlightAware
09:03PM 30.1840 -83.2680 168° South 408 470 35,000  Level FlightAware
09:04PM 30.1210 -83.2530 168° South 408 470 35,000  Level FlightAware
09:05PM 30.0580 -83.2370 168° South 408 470 35,000  Level FlightAware
09:05PM 29.8990 -83.2010 169° South 397 457 35,000  Level FlightAware
09:06PM 29.8110 -83.1800 168° South 410 472 35,000  Level FlightAware
09:07PM 29.7360 -83.1620 168° South 414 476 35,000  Level FlightAware
09:08PM 29.6520 -83.1410 168° South 413 475 35,000  Level FlightAware
09:08PM 29.5800 -83.1240 168° South 412 474 35,000  Level FlightAware
09:09PM 29.5020 -83.1060 169° South 410 472 35,000  Level FlightAware
09:10PM 29.4360 -83.0900 168° South 410 472 35,000  Level FlightAware
09:10PM 29.3540 -83.0710 169° South 410 472 35,000  Level FlightAware
09:11PM 29.2810 -83.0530 168° South 413 475 35,000  Level FlightAware
09:12PM 29.2030 -83.0350 169° South 414 476 35,000  Level FlightAware
09:12PM 29.1170 -83.0140 168° South 410 472 35,000  Level FlightAware
09:13PM 29.0420 -82.9970 169° South 412 474 35,000  Level FlightAware
09:14PM 28.9520 -82.9750 168° South 421 484 35,000  Level FlightAware
09:14PM 28.8750 -82.9570 168° South 423 487 35,000  Level FlightAware
09:15PM 28.7900 -82.9370 168° South 425 489 35,000  Level FlightAware
09:16PM 28.7130 -82.9190 168° South 425 489 35,000  Level FlightAware
09:17PM 28.6350 -82.9010 169° South 424 488 35,000  Level FlightAware
09:17PM 28.5500 -82.8810 168° South 426 490 35,000  Level FlightAware
09:18PM 28.4710 -82.8630 169° South 426 490 35,000  Level FlightAware
09:19PM 28.3860 -82.8430 168° South 428 493 35,000  Level FlightAware
09:19PM 28.3050 -82.8240 168° South 432 497 35,000  Level FlightAware
09:20PM 28.2240 -82.8050 168° South 436 502 35,000  Level FlightAware
09:21PM 28.1390 -82.7850 168° South 435 501 35,000  Level FlightAware
09:21PM 28.0590 -82.7670 169° South 439 505 35,000  Level FlightAware
09:22PM 27.9670 -82.7460 169° South 442 509 35,000  Level FlightAware
09:23PM 27.8870 -82.7180 163° South 450 518 35,000  Level FlightAware
09:24PM 27.8070 -82.6880 162° South 447 514 35,000  Level FlightAware
09:24PM 27.7210 -82.6560 162° South 449 517 35,000  Level FlightAware
09:25PM 27.6410 -82.6260 162° South 447 514 35,000  Level FlightAware
09:26PM 27.5650 -82.5950 160° South 453 521 35,000  Level FlightAware
09:26PM 27.4830 -82.5350 147° Southeast 471 542 35,000  Level FlightAware
09:27PM 27.4160 -82.4750 142° Southeast 469 540 35,000  Level FlightAware
09:28PM 27.3420 -82.4110 142° Southeast 470 541 35,000 -180 Level FlightAware
09:28PM 27.2690 -82.3470 142° Southeast 472 543 34,800 -720 Descending FlightAware
09:29PM 27.2070 -82.2930 142° Southeast 467 537 34,100 -1,200 Descending FlightAware
09:30PM 27.1260 -82.2220 142° Southeast 456 525 33,100 -1,200 Descending FlightAware
09:31PM 27.0610 -82.1650 142° Southeast 452 520 32,300 -1,200 Descending FlightAware
09:31PM 26.9830 -82.0960 142° Southeast 457 526 31,400 -1,320 Descending FlightAware
09:32PM 26.9380 -82.0340 129° Southeast 460 529 30,500 -1,500 Descending FlightAware
09:33PM 26.8750 -81.9430 128° Southeast 442 509 29,300 -1,500 Descending FlightAware
09:33PM 26.8260 -81.8710 127° Southeast 427 491 28,400 -1,500 Descending FlightAware
09:34PM 26.7690 -81.8110 137° Southeast 407 468 27,300 -1,800 Descending FlightAware
09:35PM 26.7060 -81.7500 139° Southeast 410 472 25,900 -1,920 Descending FlightAware
09:35PM 26.6620 -81.7070 139° Southeast 406 467 24,900 -1,920 Descending FlightAware
09:36PM 26.5810 -81.6280 139° Southeast 397 457 23,200 -1,860 Descending FlightAware
09:37PM 26.5430 -81.5910 139° Southeast 394 453 22,300 -720 Descending FlightAware
09:37PM 26.4870 -81.5350 138° Southeast 394 453 22,300 -1,260 Level FlightAware
09:38PM 26.4080 -81.4610 140° Southeast 382 440 20,100 -1,320 Descending FlightAware
09:39PM 26.3620 -81.4170 139° Southeast 382 440 20,100  Level FlightAware
09:40PM 26.3060 -81.3620 139° Southeast 382 440 20,100  Level FlightAware
09:41PM 26.2600 -81.3180 139° Southeast 382 440 20,100  Level FlightAware
09:41PM 26.2150 -81.2740 139° Southeast 382 440 20,100 -4,980 Level FlightAware
09:42PM 26.1360 -81.2000 140° Southeast 345 397 13,500 -5,580 Descending FlightAware
09:43PM 26.0790 -81.1450 139° Southeast 328 377 12,200 -1,680 Descending FlightAware
09:43PM 26.0280 -81.0940 138° Southeast 315 362 11,000 -1,380 Descending FlightAware
09:44PM 26.0080 -81.0350 111° Southeast 304 350 10,300 -960 Descending FlightAware
09:45PM 25.9980 -80.9900 104° East 289 333 9,900 -660 Descending FlightAware
09:45PM 25.9900 -80.9560 105° East 270 311 9,700 -780 Descending FlightAware
09:46PM 25.9810 -80.9170 104° East 251 289 9,200 -1,380 Descending FlightAware
09:46PM 25.9770 -80.8990 104° East 256 295 8,700 -1,800 Descending FlightAware
09:46PM 25.9700 -80.8650 103° East 256 295 8,000 -1,440 Descending FlightAware
09:47PM 25.9610 -80.8300 106° East 250 288 7,400 -1,140 Descending FlightAware
09:47PM 25.9540 -80.7980 104° East 250 288 7,000 -1,080 Descending FlightAware
09:47PM 25.9490 -80.7750 104° East 245 282 6,600 -1,140 Descending FlightAware
09:48PM 25.9390 -80.7310 104° East 245 282 6,000 -1,020 Descending FlightAware
09:48PM 25.9310 -80.6980 105° East 242 278 5,600 -900 Descending FlightAware
09:49PM 25.9230 -80.6620 104° East 238 274 5,100 -1,020 Descending FlightAware
09:49PM 25.9150 -80.6270 104° East 230 265 4,600 -1,140 Descending FlightAware
09:50PM 25.9070 -80.5930 105° East 225 259 4,100 -900 Descending FlightAware
09:50PM 25.9010 -80.5650 103° East 225 259 3,800 -900 Descending FlightAware
09:51PM 25.8930 -80.5320 105° East 220 253 3,300 -840 Descending FlightAware
09:51PM 25.8860 -80.4990 103° East 218 251 3,000 -480 Descending FlightAware
09:52PM 25.8800 -80.4730 104° East 199 229 2,900 -360 Descending FlightAware
09:52PM 25.8720 -80.4450 108° East 187 215 2,700 -660 Descending FlightAware
09:53PM 25.8620 -80.4240 118° Southeast 182 209 2,300 -1,140 Descending FlightAware
09:53PM 25.8490 -80.4000 121° Southeast 161 185 1,700 -900 Descending FlightAware
09:54PM 25.8390 -80.3800 119° Southeast 146 168 1,400 -660 Descending FlightAware
09:54PM 25.8300 -80.3630 120° Southeast 145 167 1,100 -780 Descending FlightAware
09:55PM 25.8200 -80.3430 119° Southeast 147 169 700 -840 Descending FlightAware
09:55PM 25.8150 -80.3330 119° Southeast 144 166 500 -780 Descending FlightAware
09:55PM 25.8080 -80.3190 119° Southeast 147 169 200 -720 Descending FlightAware
09:56PM 25.7950 -80.2940 120° Southeast 148 170 -420 Descending FlightAware